Hauptseite
METAR-TAF:

METAR-TAF

Flughäfen :

Flughafen Lahr

Lahr, Deutschland

Breite: 48-22-09N, Länge: 007-49-40E, Höhe: 156 m

Beobachtung

Neuester Wetterbericht von vor 12 Minuten, um 14:50 UTC
Wind 5 kt aus Nord/Nordost, variierte zwischen Nordwest und Ost/Nordost
Temperatur 10°C
Luftfeuchtigkeit 43%
Luftdruck 1029 hPa
Sichtweite 10 km oder mehr
keine Wolken unter 1500 m und keine Kumulonimbus oder Gewitterwolken

METAR: EDTL 261450Z 02005KT 310V070 CAVOK 10/M02 Q1029

Zeit: 16:02 (15:02 UTC)

Prognose

Neuester Wetterbericht von vor 1 Stunde und 2 Minuten, um 14:00 UTC
Gültige Prognose vom 26 um 15 UTC bis 26 um 24 UTC
Wind 5 kt aus Nordwest
Sichtweite 10 km oder mehr
Aufgelockert bewölkt in der Höhe von 4500 ft
Übergehend zu
vom 26 um 15 UTC bis 26 um 18 UTC
Wind 5 kt aus Nord/Nordost

TAF: EDTL 261400Z 2615/2624 31005KT 9999 SCT045 BECMG 2615/2618 02005KT

Wetterbeobachtungen und Prognosen von mehr als 4000 Flughäfen (METAR und TAF Bericht).

Die verfügbaren Stationen werden durch gelbe und rote Markierungen auf der Karte dargestellt.

Führen Sie die Maus auf sie, um den Namen der Station zu sehen.

Darauf klicken, um die Beobachtung von Wetterbeobachtungen und Prognosen zu sehen.

Um die Karte zu ändern : klicken Sie auf den grünen Tasten mit einem schwarzen Kreuz Zum Vergrößern, auf den grünen Button mit einem Gedankenstrich zu verkleinern, oder auf die grünen Pfeile für benachbarte Karten.


METAR-TAF: